createdAt,value
2018-05-01T00:01:37.349Z,105680.54
2018-05-01T00:04:04.870Z,105662.23
2018-05-01T00:06:32.829Z,105658.17
2018-05-01T00:09:00.485Z,105631.73
2018-05-01T00:11:28.026Z,105675.45
2018-05-01T00:13:55.590Z,105616.47
2018-05-01T00:16:23.113Z,105622.58
2018-05-01T00:18:50.802Z,105632.75
2018-05-01T00:21:18.322Z,105637.83
2018-05-01T00:23:45.846Z,105649.02
2018-05-01T00:26:13.385Z,105625.63
2018-05-01T00:28:40.901Z,105662.23
2018-05-01T00:31:08.446Z,105657.16
2018-05-01T00:33:35.985Z,105648.00
2018-05-01T00:36:03.646Z,105629.70
2018-05-01T00:38:31.161Z,105660.20
2018-05-01T00:40:58.677Z,105675.45
2018-05-01T00:43:26.230Z,105649.02
2018-05-01T00:45:54.101Z,105661.22
2018-05-01T00:48:21.627Z,105644.95
2018-05-01T00:50:49.137Z,105671.39
2018-05-01T00:53:16.819Z,105689.69
2018-05-01T00:55:44.329Z,105695.80
2018-05-01T00:58:11.847Z,105677.48
2018-05-01T01:00:39.471Z,105718.17
2018-05-01T01:03:06.993Z,105706.98
2018-05-01T01:05:34.697Z,105701.90
2018-05-01T01:08:02.213Z,105715.12
2018-05-01T01:10:29.914Z,105751.73
2018-05-01T01:12:57.913Z,105745.63
2018-05-01T01:15:25.425Z,105731.39
2018-05-01T01:17:52.936Z,105749.69
2018-05-01T01:20:20.478Z,105770.03
2018-05-01T01:22:47.993Z,105759.86
2018-05-01T01:25:15.941Z,105729.36
2018-05-01T01:27:43.451Z,105710.03
2018-05-01T01:30:10.961Z,105751.73
2018-05-01T01:32:38.548Z,105797.49
2018-05-01T01:35:05.514Z,105745.63
2018-05-01T01:37:32.569Z,105752.74
2018-05-01T01:39:59.541Z,105779.19
2018-05-01T01:42:26.509Z,105771.05
2018-05-01T01:44:53.505Z,105800.55
2018-05-01T01:47:20.480Z,105813.77
2018-05-01T01:49:47.622Z,105820.88
2018-05-01T01:52:14.589Z,105869.70
2018-05-01T01:54:41.561Z,105835.12
2018-05-01T01:57:08.567Z,105850.37
2018-05-01T01:59:35.535Z,105828.00
2018-05-01T02:02:02.525Z,105801.56
2018-05-01T02:04:29.497Z,105811.73
2018-05-01T02:06:56.507Z,105826.98
2018-05-01T02:09:23.477Z,105853.42
2018-05-01T02:11:50.487Z,105826.98
2018-05-01T02:14:17.477Z,105833.09
2018-05-01T02:16:44.469Z,105783.25
2018-05-01T02:19:11.441Z,105825.97
2018-05-01T02:21:38.474Z,105817.83
2018-05-01T02:24:05.450Z,105819.86
2018-05-01T02:26:32.424Z,105829.02
2018-05-01T02:28:59.421Z,105830.03
2018-05-01T02:31:26.398Z,105881.91
2018-05-01T02:33:53.403Z,105869.70
2018-05-01T02:36:20.383Z,105840.20
2018-05-01T02:38:47.381Z,105823.93
2018-05-01T02:41:14.442Z,105894.11
2018-05-01T02:43:41.383Z,105859.53
2018-05-01T02:46:08.382Z,105898.17
2018-05-01T02:48:35.353Z,105880.88
2018-05-01T02:51:02.383Z,105858.52
2018-05-01T02:53:29.357Z,105882.92
2018-05-01T02:55:56.341Z,105861.56
2018-05-01T02:58:23.378Z,105866.64
2018-05-01T03:00:50.354Z,105888.00
2018-05-01T03:03:17.335Z,105915.47
2018-05-01T03:05:44.330Z,105860.55
2018-05-01T03:08:11.318Z,105919.53
2018-05-01T03:10:38.486Z,105868.69
2018-05-01T03:13:05.466Z,105868.69
2018-05-01T03:15:32.437Z,105875.80
2018-05-01T03:17:59.885Z,105895.13
2018-05-01T03:20:26.886Z,105898.17
2018-05-01T03:22:53.857Z,105875.80
2018-05-01T03:25:20.944Z,105929.70
2018-05-01T03:27:47.899Z,105882.92
2018-05-01T03:30:14.865Z,105870.72
2018-05-01T03:32:41.861Z,105871.73
2018-05-01T03:35:08.864Z,105896.14
2018-05-01T03:37:35.834Z,105899.19
2018-05-01T03:40:03.336Z,105860.55
2018-05-01T03:42:30.350Z,105878.84
2018-05-01T03:44:57.328Z,105880.88
2018-05-01T03:47:24.329Z,105871.73
2018-05-01T03:49:51.329Z,105820.88
2018-05-01T03:52:18.305Z,105823.93
2018-05-01T03:54:45.785Z,105858.52
2018-05-01T03:57:12.772Z,105800.55
2018-05-01T03:59:39.746Z,105817.83
2018-05-01T04:02:06.757Z,105817.83
2018-05-01T04:04:33.794Z,105806.64
2018-05-01T04:07:00.765Z,105816.81
2018-05-01T04:09:27.737Z,105810.72
2018-05-01T04:11:54.743Z,105800.55
2018-05-01T04:14:21.737Z,105821.90
2018-05-01T04:16:48.747Z,105798.51
2018-05-01T04:19:15.975Z,105794.44
2018-05-01T04:21:42.981Z,105780.20
2018-05-01T04:24:09.977Z,105759.86
2018-05-01T04:26:36.983Z,105811.73
2018-05-01T04:29:03.978Z,105820.88
2018-05-01T04:31:30.973Z,105829.02
2018-05-01T04:33:57.937Z,105828.00
2018-05-01T04:36:25.045Z,105792.41
2018-05-01T04:38:52.018Z,105819.86
2018-05-01T04:41:18.994Z,105814.78
2018-05-01T04:43:46.190Z,105820.88
2018-05-01T04:46:13.169Z,105811.73
2018-05-01T04:48:40.148Z,105809.70
2018-05-01T04:51:07.206Z,105811.73
2018-05-01T04:53:34.186Z,105798.51
2018-05-01T04:56:01.162Z,105790.38
2018-05-01T04:58:28.372Z,105807.66
2018-05-01T05:00:55.354Z,105803.59
2018-05-01T05:03:22.336Z,105779.19
2018-05-01T05:05:49.344Z,105771.05
2018-05-01T05:08:16.373Z,105811.73
2018-05-01T05:10:43.377Z,105787.32
2018-05-01T05:13:10.354Z,105784.27
2018-05-01T05:15:37.372Z,105790.38
2018-05-01T05:18:04.378Z,105803.59
2018-05-01T05:20:31.349Z,105784.27
2018-05-01T05:22:58.570Z,105796.47
2018-05-01T05:25:25.565Z,105806.64
2018-05-01T05:27:52.537Z,105766.98
2018-05-01T05:30:19.534Z,105806.64
2018-05-01T05:32:46.525Z,105794.44
2018-05-01T05:35:13.554Z,105813.77
2018-05-01T05:37:40.526Z,105810.72
2018-05-01T05:40:07.502Z,105824.95
2018-05-01T05:42:34.506Z,105833.09
2018-05-01T05:45:01.534Z,105789.36
2018-05-01T05:47:28.515Z,105818.84
2018-05-01T05:49:55.489Z,105809.70
2018-05-01T05:52:22.607Z,105836.14
2018-05-01T05:54:49.580Z,105803.59
2018-05-01T05:57:16.557Z,105802.58
2018-05-01T05:59:43.575Z,105819.86
2018-05-01T06:02:10.549Z,105831.05
2018-05-01T06:04:37.526Z,105808.67
2018-05-01T06:07:04.570Z,105806.64
2018-05-01T06:09:31.554Z,105839.19
2018-05-01T06:11:58.531Z,105835.12
2018-05-01T06:14:25.934Z,105782.23
2018-05-01T06:16:52.918Z,105806.64
2018-05-01T06:19:20.779Z,105816.81
2018-05-01T06:21:47.860Z,105832.07
2018-05-01T06:24:14.798Z,105788.34
2018-05-01T06:26:41.798Z,105841.22
2018-05-01T06:29:08.806Z,105846.31
2018-05-01T06:31:35.815Z,105822.91
2018-05-01T06:34:02.815Z,105790.38
2018-05-01T06:36:29.791Z,105860.55
2018-05-01T06:38:56.795Z,105789.36
2018-05-01T06:41:23.778Z,105795.45
2018-05-01T06:43:50.876Z,105824.95
2018-05-01T06:46:17.794Z,105816.81
2018-05-01T06:48:44.769Z,105836.14
2018-05-01T06:51:11.778Z,105800.55
2018-05-01T06:53:38.747Z,105799.53
2018-05-01T06:56:06.276Z,105769.02
2018-05-01T06:58:34.150Z,105779.19
2018-05-01T07:01:01.125Z,105804.61
2018-05-01T07:03:28.107Z,105817.83
2018-05-01T07:05:55.114Z,105737.48
2018-05-01T07:08:22.094Z,105786.30
2018-05-01T07:10:49.166Z,105796.47
2018-05-01T07:13:16.197Z,105833.09
2018-05-01T07:15:43.360Z,105790.38
2018-05-01T07:18:10.333Z,105809.70
2018-05-01T07:20:37.305Z,105800.55
2018-05-01T07:23:04.333Z,105728.34
2018-05-01T07:25:31.408Z,105788.34
2018-05-01T07:27:58.422Z,105741.56
2018-05-01T07:30:25.459Z,105796.47
2018-05-01T07:32:52.429Z,105808.67
2018-05-01T07:35:19.398Z,105776.13
2018-05-01T07:37:46.458Z,105806.64
2018-05-01T07:40:13.440Z,105789.36
2018-05-01T07:42:40.444Z,105775.12
2018-05-01T07:45:07.447Z,105795.45
2018-05-01T07:47:34.422Z,105792.41
2018-05-01T07:50:01.459Z,105749.69
2018-05-01T07:52:28.429Z,105772.06
2018-05-01T07:54:55.433Z,105749.69
2018-05-01T07:57:22.593Z,105783.25
2018-05-01T07:59:49.871Z,105790.38
2018-05-01T08:02:16.918Z,105792.41
2018-05-01T08:04:43.965Z,105772.06
2018-05-01T08:07:10.956Z,105749.69
2018-05-01T08:09:38.065Z,105799.53
2018-05-01T08:12:05.303Z,105785.29
2018-05-01T08:14:32.261Z,105734.44
2018-05-01T08:16:59.233Z,105772.06
2018-05-01T08:19:26.234Z,105731.39
2018-05-01T08:21:53.213Z,105760.88
2018-05-01T08:24:20.271Z,105764.95
2018-05-01T08:26:47.229Z,105730.38
2018-05-01T08:29:14.416Z,105783.25
2018-05-01T08:31:41.765Z,105738.50
2018-05-01T08:34:08.737Z,105716.13
2018-05-01T08:36:36.327Z,105749.69
2018-05-01T08:39:03.311Z,105739.52
2018-05-01T08:41:30.905Z,105728.34
2018-05-01T08:43:57.902Z,105700.87
2018-05-01T08:46:24.878Z,105666.30
2018-05-01T08:48:51.873Z,105730.38
2018-05-01T08:51:18.837Z,105672.41
2018-05-01T08:53:45.836Z,105648.00
2018-05-01T08:56:12.849Z,105690.71
2018-05-01T08:58:39.840Z,105616.47
2018-05-01T09:01:06.858Z,105609.36
2018-05-01T09:03:33.833Z,105621.56
2018-05-01T09:06:00.805Z,105642.91
2018-05-01T09:08:27.797Z,105619.52
2018-05-01T09:10:54.938Z,105598.17
2018-05-01T09:13:21.915Z,105611.39
2018-05-01T09:15:48.906Z,105578.84
2018-05-01T09:18:16.024Z,105483.26
2018-05-01T09:20:42.921Z,105560.55
2018-05-01T09:23:09.965Z,105496.48
2018-05-01T09:25:37.004Z,105573.77
2018-05-01T09:28:03.949Z,105549.36
2018-05-01T09:30:30.977Z,105505.62
2018-05-01T09:32:57.968Z,105514.78
2018-05-01T09:35:24.967Z,105500.55
2018-05-01T09:37:51.966Z,105444.62
2018-05-01T09:40:18.976Z,105464.95
2018-05-01T09:42:46.323Z,105493.42
2018-05-01T09:45:13.298Z,105429.36
2018-05-01T09:47:40.384Z,105452.75
2018-05-01T09:50:07.396Z,105487.33
2018-05-01T09:52:34.910Z,105463.94
2018-05-01T09:55:02.585Z,105380.55
2018-05-01T09:57:30.155Z,105452.75
2018-05-01T09:59:57.670Z,105417.16
2018-05-01T10:02:25.330Z,105410.05
2018-05-01T10:04:52.865Z,105441.56
2018-05-01T10:07:20.393Z,105548.34
2018-05-01T10:09:47.939Z,105531.05
2018-05-01T10:12:15.472Z,105524.95
2018-05-01T10:14:43.026Z,105554.44
2018-05-01T10:17:10.575Z,105542.23
2018-05-01T10:19:38.095Z,105583.93
2018-05-01T10:22:05.629Z,105522.92
2018-05-01T10:24:33.329Z,105533.09
2018-05-01T10:27:00.912Z,105571.73
2018-05-01T10:29:28.452Z,105530.03
2018-05-01T10:31:56.139Z,105495.46
2018-05-01T10:34:23.653Z,105496.48
2018-05-01T10:36:51.402Z,105532.07
2018-05-01T10:39:18.922Z,105521.90
2018-05-01T10:41:46.439Z,105521.90
2018-05-01T10:44:14.024Z,105415.13
2018-05-01T10:46:41.969Z,105441.56
2018-05-01T10:49:09.481Z,105406.99
2018-05-01T10:51:37.025Z,105343.95
2018-05-01T10:54:04.586Z,105285.98
2018-05-01T10:56:32.097Z,105249.38
2018-05-01T10:58:59.633Z,105213.80
2018-05-01T11:01:27.155Z,105242.27
2018-05-01T11:03:55.114Z,105242.27
2018-05-01T11:06:22.642Z,105227.02
2018-05-01T11:08:50.168Z,105168.03
2018-05-01T11:11:17.744Z,105236.16
2018-05-01T11:13:45.271Z,105215.83
2018-05-01T11:16:12.797Z,105155.84
2018-05-01T11:18:40.766Z,105289.04
2018-05-01T11:21:08.286Z,105273.78
2018-05-01T11:23:35.815Z,105187.36
2018-05-01T11:26:03.554Z,105119.23
2018-05-01T11:28:31.116Z,105064.33
2018-05-01T11:30:58.574Z,104995.19
2018-05-01T11:33:26.142Z,105033.82
2018-05-01T11:35:54.083Z,105084.66
2018-05-01T11:38:21.637Z,105039.92
2018-05-01T11:40:49.169Z,105001.28
2018-05-01T11:43:16.814Z,104897.58
2018-05-01T11:45:44.334Z,104875.21
2018-05-01T11:48:11.854Z,104711.52
2018-05-01T11:50:39.519Z,104670.86
2018-05-01T11:53:07.030Z,104622.06
2018-05-01T11:55:34.542Z,104449.23
2018-05-01T11:58:02.093Z,104519.38
2018-05-01T12:00:29.618Z,104499.05
2018-05-01T12:02:57.206Z,104589.53
2018-05-01T12:05:24.713Z,104562.08
2018-05-01T12:07:52.226Z,104493.97
2018-05-01T12:10:19.771Z,104347.58
2018-05-01T12:12:47.294Z,104420.77
2018-05-01T12:15:14.834Z,104380.11
2018-05-01T12:17:42.355Z,104294.72
2018-05-01T12:20:09.904Z,104255.07
2018-05-01T12:22:37.442Z,104220.51
2018-05-01T12:25:05.134Z,104224.58
2018-05-01T12:27:32.646Z,104269.30
2018-05-01T12:30:00.249Z,104063.97
2018-05-01T12:32:27.740Z,104114.80
2018-05-01T12:34:55.260Z,104277.44
2018-05-01T12:37:23.005Z,104076.17
2018-05-01T12:39:50.516Z,103959.27
2018-05-01T12:42:18.021Z,103944.02
2018-05-01T12:44:45.582Z,104023.31
2018-05-01T12:47:13.102Z,104239.82
2018-05-01T12:49:40.643Z,104183.91
2018-05-01T12:52:08.157Z,103938.95
2018-05-01T12:54:35.717Z,103924.72
2018-05-01T12:57:03.238Z,103767.17
2018-05-01T12:59:30.750Z,103969.44
2018-05-01T13:01:58.310Z,103864.75
2018-05-01T13:04:25.821Z,103644.19
2018-05-01T13:06:53.374Z,103480.56
2018-05-01T13:09:21.051Z,103566.95
2018-05-01T13:11:48.579Z,103748.87
2018-05-01T13:14:16.089Z,103758.02
2018-05-01T13:16:43.771Z,103858.64
2018-05-01T13:19:11.311Z,103678.75
2018-05-01T13:21:38.829Z,103887.11
2018-05-01T13:24:06.379Z,103904.38
2018-05-01T13:26:33.906Z,103809.86
2018-05-01T13:29:01.467Z,103949.11
2018-05-01T13:31:28.990Z,103878.98
2018-05-01T13:33:56.507Z,103929.80
2018-05-01T13:36:24.058Z,103893.20
2018-05-01T13:38:51.578Z,103768.19
2018-05-01T13:41:19.157Z,103808.84
2018-05-01T13:43:46.743Z,103810.88
2018-05-01T13:46:14.219Z,103858.64
2018-05-01T13:48:41.770Z,103932.84
2018-05-01T13:51:09.295Z,103823.08
2018-05-01T13:53:36.841Z,103882.02
2018-05-01T13:56:04.357Z,103949.11
2018-05-01T13:58:32.110Z,103856.61
2018-05-01T14:00:59.635Z,103988.75
2018-05-01T14:03:27.150Z,103830.19
2018-05-01T14:05:54.695Z,103824.09
2018-05-01T14:08:22.229Z,103944.02
2018-05-01T14:10:49.747Z,103949.11
2018-05-01T14:13:17.328Z,104031.44
2018-05-01T14:15:44.864Z,104050.75
2018-05-01T14:18:12.373Z,104052.78
2018-05-01T14:20:40.350Z,104005.02
2018-05-01T14:23:07.854Z,103897.27
2018-05-01T14:25:35.401Z,103893.20
2018-05-01T14:28:02.933Z,103827.14
2018-05-01T14:30:30.445Z,103896.25
2018-05-01T14:32:58.117Z,103832.22
2018-05-01T14:35:25.630Z,103804.77
2018-05-01T14:37:53.145Z,103698.05
2018-05-01T14:40:20.681Z,103812.91
2018-05-01T14:42:48.198Z,103735.66
2018-05-01T14:45:15.895Z,103651.30
2018-05-01T14:47:43.405Z,103724.48
2018-05-01T14:50:10.959Z,103731.59
2018-05-01T14:52:38.475Z,104004.00
2018-05-01T14:55:05.999Z,103953.17
2018-05-01T14:57:33.644Z,103947.08
2018-05-01T15:00:01.326Z,103962.33
2018-05-01T15:02:28.867Z,104066.00
2018-05-01T15:04:56.394Z,104192.05
2018-05-01T15:07:23.929Z,104044.66
2018-05-01T15:09:51.446Z,104157.48
2018-05-01T15:12:19.391Z,104135.13
2018-05-01T15:14:46.907Z,104158.50
2018-05-01T15:17:14.438Z,104027.38
2018-05-01T15:19:41.984Z,104111.74
2018-05-01T15:22:09.502Z,103919.63
2018-05-01T15:24:37.158Z,103743.80
2018-05-01T15:27:04.693Z,103947.08
2018-05-01T15:29:32.213Z,103776.31
2018-05-01T15:31:59.766Z,103807.83
2018-05-01T15:34:27.282Z,103898.28
2018-05-01T15:36:54.795Z,103843.40
2018-05-01T15:39:22.357Z,103987.73
2018-05-01T15:41:49.871Z,104012.13
2018-05-01T15:44:17.386Z,104030.42
2018-05-01T15:46:44.920Z,103886.09
2018-05-01T15:49:12.434Z,103746.84
2018-05-01T15:51:40.022Z,103829.17
2018-05-01T15:54:07.525Z,103653.34
2018-05-01T15:56:36.002Z,103512.06
2018-05-01T15:59:03.572Z,103719.40
2018-05-01T16:01:31.085Z,103690.94
2018-05-01T16:03:58.606Z,103625.89
2018-05-01T16:06:26.179Z,103668.58
2018-05-01T16:08:53.701Z,103750.91
2018-05-01T16:11:21.214Z,103580.16
2018-05-01T16:13:49.144Z,103550.69
2018-05-01T16:16:16.657Z,103642.16
2018-05-01T16:18:44.182Z,103573.05
2018-05-01T16:21:11.727Z,103595.41
2018-05-01T16:23:39.244Z,103672.65
2018-05-01T16:26:06.792Z,103692.98
2018-05-01T16:28:34.469Z,103764.12
2018-05-01T16:31:01.982Z,103837.30
2018-05-01T16:33:29.489Z,103751.92
2018-05-01T16:35:57.036Z,103655.38
2018-05-01T16:38:24.588Z,103771.23
2018-05-01T16:40:52.137Z,103723.47
2018-05-01T16:43:19.675Z,103777.33
2018-05-01T16:45:47.353Z,103736.68
2018-05-01T16:48:14.901Z,103839.34
2018-05-01T16:50:42.451Z,103865.77
2018-05-01T16:53:10.097Z,103962.33
2018-05-01T16:55:37.622Z,103961.31
2018-05-01T16:58:05.143Z,103895.23
2018-05-01T17:00:32.685Z,103815.95
2018-05-01T17:03:00.200Z,103833.23
2018-05-01T17:05:27.866Z,103883.04
2018-05-01T17:07:55.378Z,103964.36
2018-05-01T17:10:22.893Z,104069.05
2018-05-01T17:12:50.450Z,104037.54
2018-05-01T17:15:18.013Z,104043.64
2018-05-01T17:17:45.870Z,104148.34
2018-05-01T17:20:13.391Z,104038.55
2018-05-01T17:22:40.912Z,104037.54
2018-05-01T17:25:08.467Z,104084.30
2018-05-01T17:27:36.006Z,104078.20
2018-05-01T17:30:03.597Z,104115.81
2018-05-01T17:32:31.123Z,104069.05
2018-05-01T17:34:58.660Z,104071.08
2018-05-01T17:37:26.201Z,104141.22
2018-05-01T17:39:53.708Z,104128.00
2018-05-01T17:42:21.399Z,104254.05
2018-05-01T17:44:48.904Z,104201.20
2018-05-01T17:47:16.416Z,104252.02
2018-05-01T17:49:43.949Z,104198.14
2018-05-01T17:52:11.460Z,104272.36
2018-05-01T17:54:39.043Z,104335.37
2018-05-01T17:57:06.563Z,104293.70
2018-05-01T17:59:34.074Z,104380.11
2018-05-01T18:02:01.609Z,104326.23
2018-05-01T18:04:29.118Z,104329.28
2018-05-01T18:06:56.689Z,104408.57
2018-05-01T18:09:24.201Z,104440.08
2018-05-01T18:11:51.706Z,104265.23
2018-05-01T18:14:19.241Z,104171.72
2018-05-01T18:16:46.754Z,104137.16
2018-05-01T18:19:14.297Z,103910.48
2018-05-01T18:21:41.822Z,103697.04
2018-05-01T18:24:09.495Z,103733.62
2018-05-01T18:26:37.018Z,103810.88
2018-05-01T18:29:04.531Z,103908.45
2018-05-01T18:31:32.065Z,104021.28
2018-05-01T18:33:59.578Z,104131.06
2018-05-01T18:36:27.118Z,104251.00
2018-05-01T18:38:54.650Z,104450.25
2018-05-01T18:41:22.220Z,104521.41
2018-05-01T18:43:49.750Z,104590.55
2018-05-01T18:46:17.261Z,104721.69
2018-05-01T18:48:45.222Z,104823.36
2018-05-01T18:51:12.729Z,104840.64
2018-05-01T18:53:40.241Z,104871.14
2018-05-01T18:56:07.779Z,104946.38
2018-05-01T18:58:35.294Z,104997.22
2018-05-01T19:01:03.191Z,105048.05
2018-05-01T19:03:30.722Z,105076.53
2018-05-01T19:05:58.242Z,105122.28
2018-05-01T19:08:25.914Z,105150.75
2018-05-01T19:10:53.421Z,105147.70
2018-05-01T19:13:20.947Z,105199.55
2018-05-01T19:15:48.814Z,105214.81
2018-05-01T19:18:16.333Z,105273.78
2018-05-01T19:20:43.858Z,105310.39
2018-05-01T19:23:11.429Z,105365.30
2018-05-01T19:25:38.949Z,105354.11
2018-05-01T19:28:06.476Z,105357.16
2018-05-01T19:30:34.018Z,105364.28
2018-05-01T19:33:01.543Z,105341.91
2018-05-01T19:35:29.077Z,105321.58
2018-05-01T19:37:56.594Z,105369.37
2018-05-01T19:40:24.161Z,105421.23
2018-05-01T19:42:51.673Z,105448.69
2018-05-01T19:45:19.191Z,105507.66
2018-05-01T19:47:46.763Z,105499.53
2018-05-01T19:50:14.278Z,105520.88
2018-05-01T19:52:41.839Z,105560.55
2018-05-01T19:55:09.359Z,105591.05
2018-05-01T19:57:36.897Z,105610.38
2018-05-01T20:00:04.849Z,105636.81
2018-05-01T20:02:32.357Z,105552.41
2018-05-01T20:04:59.884Z,105579.86
2018-05-01T20:07:27.430Z,105589.02
2018-05-01T20:09:55.446Z,105608.34
2018-05-01T20:12:22.953Z,105611.39
2018-05-01T20:14:50.490Z,105610.38
2018-05-01T20:17:18.027Z,105603.25
2018-05-01T20:19:45.608Z,105621.56
2018-05-01T20:22:13.121Z,105603.25
2018-05-01T20:24:41.088Z,105608.34
2018-05-01T20:27:08.607Z,105631.73
2018-05-01T20:29:36.132Z,105635.80
2018-05-01T20:32:03.665Z,105627.66
2018-05-01T20:34:31.184Z,105672.41
2018-05-01T20:36:59.062Z,105643.94
2018-05-01T20:39:26.595Z,105686.64
2018-05-01T20:41:54.109Z,105662.23
2018-05-01T20:44:21.671Z,105638.84
2018-05-01T20:46:49.225Z,105703.93
2018-05-01T20:49:16.738Z,105679.52
2018-05-01T20:51:44.402Z,105681.55
2018-05-01T20:54:11.914Z,105699.86
2018-05-01T20:56:39.434Z,105689.69
2018-05-01T20:59:07.336Z,105730.38
2018-05-01T21:01:34.871Z,105681.55
2018-05-01T21:04:02.453Z,105693.77
2018-05-01T21:06:29.993Z,105726.30
2018-05-01T21:08:57.530Z,105688.67
2018-05-01T21:11:25.071Z,105691.73
2018-05-01T21:13:52.586Z,105709.02
2018-05-01T21:16:20.117Z,105691.73
2018-05-01T21:18:47.638Z,105695.80
2018-05-01T21:21:15.189Z,105729.36
2018-05-01T21:23:42.727Z,105683.59
2018-05-01T21:26:10.306Z,105656.14
2018-05-01T21:28:37.822Z,105657.16
2018-05-01T21:31:05.399Z,105656.14
2018-05-01T21:33:33.052Z,105630.71
2018-05-01T21:36:00.580Z,105661.22
2018-05-01T21:38:28.089Z,105690.71
2018-05-01T21:40:55.622Z,105699.86
2018-05-01T21:43:23.140Z,105723.25
2018-05-01T21:45:50.687Z,105755.80
2018-05-01T21:48:18.247Z,105762.91
2018-05-01T21:50:46.253Z,105786.30
2018-05-01T21:53:13.765Z,105790.38
2018-05-01T21:55:41.284Z,105801.56
2018-05-01T21:58:08.821Z,105841.22
2018-05-01T22:00:36.333Z,105822.91
2018-05-01T22:03:03.902Z,105823.93
2018-05-01T22:05:31.410Z,105846.31
2018-05-01T22:07:58.917Z,105897.16
2018-05-01T22:10:26.479Z,105902.24
2018-05-01T22:12:54.411Z,105949.02
2018-05-01T22:15:21.930Z,105961.23
2018-05-01T22:17:49.636Z,105964.28
2018-05-01T22:20:17.173Z,105986.66
2018-05-01T22:22:44.694Z,105976.48
2018-05-01T22:25:12.234Z,105996.83
2018-05-01T22:27:39.953Z,106000.89
2018-05-01T22:30:07.469Z,106026.32
2018-05-01T22:32:34.983Z,106027.34
2018-05-01T22:35:02.518Z,106077.17
2018-05-01T22:37:30.057Z,106097.52
2018-05-01T22:39:57.727Z,106077.17
2018-05-01T22:42:25.243Z,106094.47
2018-05-01T22:44:52.768Z,106118.88
2018-05-01T22:47:20.305Z,106117.86
2018-05-01T22:49:47.843Z,106094.47
2018-05-01T22:52:15.381Z,106130.06
2018-05-01T22:54:42.904Z,106146.33
2018-05-01T22:57:10.444Z,106131.08
2018-05-01T22:59:37.958Z,106155.48
2018-05-01T23:02:05.501Z,106130.06
2018-05-01T23:04:33.017Z,106145.31
2018-05-01T23:07:00.551Z,106144.30
2018-05-01T23:09:28.290Z,106175.83
2018-05-01T23:11:55.807Z,106133.11
2018-05-01T23:14:23.334Z,106124.98
2018-05-01T23:16:51.217Z,106122.94
2018-05-01T23:19:18.734Z,106103.62
2018-05-01T23:21:46.257Z,106102.59
2018-05-01T23:24:13.818Z,106069.03
2018-05-01T23:26:41.346Z,106027.34
2018-05-01T23:29:08.876Z,105983.61
2018-05-01T23:31:36.413Z,105894.11
2018-05-01T23:34:03.949Z,105829.02
2018-05-01T23:36:31.570Z,105766.98
2018-05-01T23:38:59.172Z,105660.20
2018-05-01T23:41:27.022Z,105677.48
2018-05-01T23:43:54.545Z,105669.35
2018-05-01T23:46:22.062Z,105651.05
2018-05-01T23:48:49.621Z,105598.17
2018-05-01T23:51:17.133Z,105571.73
2018-05-01T23:53:44.797Z,105534.10
2018-05-01T23:56:12.377Z,105514.78
2018-05-01T23:58:39.919Z,105504.61
